createdAt,value
2022-10-30T00:00:21.281Z,56.79
2022-10-30T00:02:49.271Z,56.93
2022-10-30T00:05:17.239Z,57.07
2022-10-30T00:07:45.100Z,57.27
2022-10-30T00:10:13.019Z,56.93
2022-10-30T00:12:42.244Z,57.31
2022-10-30T00:15:10.792Z,57.10
2022-10-30T00:17:38.715Z,57.50
2022-10-30T00:20:07.611Z,57.25
2022-10-30T00:22:36.376Z,57.20
2022-10-30T00:25:04.397Z,57.13
2022-10-30T00:27:32.332Z,57.21
2022-10-30T00:30:01.561Z,57.52
2022-10-30T00:32:29.419Z,57.82
2022-10-30T00:34:57.289Z,57.38
2022-10-30T00:37:25.230Z,57.51
2022-10-30T00:39:53.107Z,57.85
2022-10-30T00:42:20.981Z,57.88
2022-10-30T00:44:49.648Z,57.82
2022-10-30T00:47:21.167Z,58.02
2022-10-30T00:49:52.754Z,58.13
2022-10-30T00:52:20.851Z,57.91
2022-10-30T00:54:48.739Z,58.02
2022-10-30T00:57:16.585Z,58.02
2022-10-30T00:59:44.551Z,57.95
2022-10-30T01:02:12.538Z,58.28
2022-10-30T01:04:41.874Z,57.96
2022-10-30T01:07:11.749Z,58.22
2022-10-30T01:09:39.892Z,58.39
2022-10-30T01:12:08.375Z,58.23
2022-10-30T01:14:36.747Z,58.25
2022-10-30T01:17:13.078Z,58.01
2022-10-30T01:19:43.844Z,57.77
2022-10-30T01:22:26.276Z,57.66
2022-10-30T01:24:59.054Z,57.97
2022-10-30T01:27:37.162Z,57.56
2022-10-30T01:30:12.035Z,57.57
2022-10-30T01:32:46.518Z,58.01
2022-10-30T01:35:17.335Z,57.71
2022-10-30T01:37:49.319Z,57.95
2022-10-30T01:40:18.563Z,58.12
2022-10-30T01:42:48.942Z,57.81
2022-10-30T01:45:23.573Z,58.00
2022-10-30T01:48:01.762Z,57.71
2022-10-30T01:50:34.733Z,57.68
2022-10-30T01:53:05.238Z,58.11
2022-10-30T01:55:36.731Z,57.83
2022-10-30T01:58:07.758Z,58.19
2022-10-30T02:00:35.631Z,58.18
2022-10-30T02:03:03.547Z,58.52
2022-10-30T02:05:39.953Z,58.38
2022-10-30T02:08:07.856Z,58.56
2022-10-30T02:10:35.823Z,58.29
2022-10-30T02:13:03.719Z,58.70
2022-10-30T02:15:31.826Z,58.55
2022-10-30T02:18:00.143Z,58.54
2022-10-30T02:20:29.761Z,58.37
2022-10-30T02:22:59.344Z,58.58
2022-10-30T02:25:27.741Z,58.39
2022-10-30T02:27:55.581Z,58.57
2022-10-30T02:30:23.476Z,58.53
2022-10-30T02:32:51.340Z,58.51
2022-10-30T02:35:19.216Z,58.90
2022-10-30T02:37:50.326Z,58.57
2022-10-30T02:40:18.424Z,58.81
2022-10-30T02:42:46.305Z,58.89
2022-10-30T02:45:14.213Z,58.54
2022-10-30T02:47:42.080Z,58.60
2022-10-30T02:50:11.294Z,58.87
2022-10-30T02:52:39.246Z,58.83
2022-10-30T02:55:09.222Z,58.78
2022-10-30T02:57:37.073Z,58.76
2022-10-30T03:00:05.658Z,58.60
2022-10-30T03:02:33.527Z,58.77
2022-10-30T03:05:01.415Z,58.86
2022-10-30T03:07:29.311Z,58.80
2022-10-30T03:09:57.203Z,58.74
2022-10-30T03:12:26.499Z,58.56
2022-10-30T03:14:54.390Z,58.68
2022-10-30T03:17:22.272Z,58.72
2022-10-30T03:19:51.514Z,58.60
2022-10-30T03:22:19.440Z,58.75
2022-10-30T03:24:47.294Z,58.64
2022-10-30T03:27:15.169Z,58.48
2022-10-30T03:29:44.444Z,58.66
2022-10-30T03:32:12.517Z,58.61
2022-10-30T03:34:40.606Z,58.60
2022-10-30T03:37:08.538Z,58.68
2022-10-30T03:39:36.533Z,58.30
2022-10-30T03:42:04.435Z,58.46
2022-10-30T03:44:32.336Z,58.41
2022-10-30T03:47:01.603Z,57.99
2022-10-30T03:49:29.882Z,58.46
2022-10-30T03:51:57.763Z,58.00
2022-10-30T03:54:25.650Z,58.20
2022-10-30T03:56:53.530Z,58.26
2022-10-30T03:59:21.431Z,58.14
2022-10-30T04:01:49.425Z,57.79
2022-10-30T04:04:19.009Z,57.91
2022-10-30T04:06:46.909Z,57.89
2022-10-30T04:09:14.820Z,57.82
2022-10-30T04:11:42.711Z,57.64
2022-10-30T04:14:10.610Z,57.83
2022-10-30T04:16:38.510Z,57.72
2022-10-30T04:19:06.405Z,57.86
2022-10-30T04:21:35.744Z,58.02
2022-10-30T04:24:03.641Z,57.71
2022-10-30T04:26:31.497Z,57.92
2022-10-30T04:28:59.340Z,57.72
2022-10-30T04:31:27.371Z,57.98
2022-10-30T04:33:55.239Z,58.08
2022-10-30T04:36:29.907Z,57.67
2022-10-30T04:38:59.147Z,57.80
2022-10-30T04:41:27.075Z,57.74
2022-10-30T04:43:54.932Z,57.98
2022-10-30T04:46:22.809Z,58.02
2022-10-30T04:48:50.724Z,57.94
2022-10-30T04:51:18.637Z,58.06
2022-10-30T04:53:46.505Z,57.69
2022-10-30T04:56:16.488Z,57.75
2022-10-30T04:58:44.391Z,57.80
2022-10-30T05:01:12.318Z,57.69
2022-10-30T05:03:40.230Z,58.03
2022-10-30T05:06:13.185Z,57.57
2022-10-30T05:08:41.034Z,57.59
2022-10-30T05:11:08.913Z,57.78
2022-10-30T05:13:38.373Z,57.79
2022-10-30T05:16:06.987Z,57.91
2022-10-30T05:18:34.863Z,57.70
2022-10-30T05:21:02.715Z,57.96
2022-10-30T05:23:30.611Z,57.69
2022-10-30T05:25:58.499Z,57.38
2022-10-30T05:28:26.714Z,57.71
2022-10-30T05:30:55.972Z,57.47
2022-10-30T05:33:23.847Z,57.60
2022-10-30T05:35:51.757Z,57.27
2022-10-30T05:38:19.810Z,57.60
2022-10-30T05:40:47.786Z,57.18
2022-10-30T05:43:15.635Z,57.14
2022-10-30T05:45:43.932Z,57.05
2022-10-30T05:48:13.209Z,57.09
2022-10-30T05:50:41.058Z,57.07
2022-10-30T05:53:08.938Z,57.09
2022-10-30T05:55:36.814Z,56.70
2022-10-30T05:58:05.423Z,56.69
2022-10-30T06:00:34.240Z,56.88
2022-10-30T06:03:02.854Z,56.70
2022-10-30T06:05:33.090Z,56.73
2022-10-30T06:08:02.840Z,56.59
2022-10-30T06:10:30.764Z,56.71
2022-10-30T06:12:59.800Z,57.00
2022-10-30T06:15:28.621Z,56.77
2022-10-30T06:17:56.995Z,56.90
2022-10-30T06:20:26.539Z,56.68
2022-10-30T06:22:56.630Z,56.59
2022-10-30T06:25:24.740Z,56.67
2022-10-30T06:27:52.648Z,56.83
2022-10-30T06:30:20.648Z,56.67
2022-10-30T06:32:48.588Z,56.59
2022-10-30T06:35:16.683Z,56.60
2022-10-30T06:37:47.843Z,56.70
2022-10-30T06:40:17.363Z,56.57
2022-10-30T06:42:45.819Z,56.64
2022-10-30T06:45:13.858Z,56.71
2022-10-30T06:47:41.880Z,56.68
2022-10-30T06:50:11.011Z,56.81
2022-10-30T06:52:38.937Z,56.52
2022-10-30T06:55:07.521Z,56.87
2022-10-30T06:57:39.323Z,56.70
2022-10-30T07:00:08.421Z,56.52
2022-10-30T07:02:36.468Z,56.33
2022-10-30T07:05:04.511Z,56.42
2022-10-30T07:07:32.451Z,56.59
2022-10-30T07:10:00.590Z,56.49
2022-10-30T07:12:28.514Z,56.58
2022-10-30T07:14:57.758Z,56.34
2022-10-30T07:17:25.772Z,56.65
2022-10-30T07:19:55.758Z,56.45
2022-10-30T07:22:23.792Z,56.42
2022-10-30T07:24:51.879Z,56.46
2022-10-30T07:27:19.813Z,56.75
2022-10-30T07:29:47.734Z,56.89
2022-10-30T07:32:17.021Z,56.82
2022-10-30T07:34:47.789Z,57.12
2022-10-30T07:37:16.938Z,57.28
2022-10-30T07:39:44.803Z,57.39
2022-10-30T07:42:13.172Z,57.24
2022-10-30T07:44:41.057Z,57.47
2022-10-30T07:47:11.963Z,57.22
2022-10-30T07:49:44.033Z,57.45
2022-10-30T07:52:16.302Z,57.46
2022-10-30T07:54:45.652Z,57.33
2022-10-30T07:57:13.546Z,57.19
2022-10-30T07:59:41.484Z,57.25
2022-10-30T08:02:10.482Z,57.33
2022-10-30T08:04:38.539Z,57.08
2022-10-30T08:07:09.746Z,56.96
2022-10-30T08:09:39.918Z,56.77
2022-10-30T08:12:08.859Z,56.88
2022-10-30T08:14:36.770Z,56.77
2022-10-30T08:17:05.219Z,56.92
2022-10-30T08:19:33.107Z,57.07
2022-10-30T08:22:03.998Z,57.41
2022-10-30T08:24:33.250Z,57.49
2022-10-30T08:27:01.184Z,57.34
2022-10-30T08:29:29.166Z,57.81
2022-10-30T08:31:57.060Z,57.92
2022-10-30T08:34:26.654Z,58.18
2022-10-30T08:36:54.782Z,58.21
2022-10-30T08:39:22.989Z,58.76
2022-10-30T08:41:52.255Z,58.68
2022-10-30T08:44:20.129Z,58.87
2022-10-30T08:46:48.009Z,59.10
2022-10-30T08:49:15.873Z,59.09
2022-10-30T08:51:44.351Z,59.49
2022-10-30T08:54:12.316Z,59.57
2022-10-30T08:56:40.312Z,59.38
2022-10-30T08:59:09.638Z,59.45
2022-10-30T09:01:37.650Z,59.53
2022-10-30T09:04:05.976Z,59.80
2022-10-30T09:06:33.887Z,59.74
2022-10-30T09:09:01.812Z,59.83
2022-10-30T09:11:29.714Z,59.98
2022-10-30T09:13:57.635Z,60.30
2022-10-30T09:16:26.990Z,60.57
2022-10-30T09:18:54.890Z,60.42
2022-10-30T09:21:22.779Z,60.71
2022-10-30T09:23:50.667Z,60.73
2022-10-30T09:26:20.931Z,60.87
2022-10-30T09:28:48.911Z,60.94
2022-10-30T09:31:16.841Z,60.81
2022-10-30T09:33:46.183Z,60.58
2022-10-30T09:36:19.647Z,60.47
2022-10-30T09:38:50.064Z,60.62
2022-10-30T09:41:37.132Z,60.28
2022-10-30T09:44:13.783Z,60.46
2022-10-30T09:46:56.884Z,60.68
2022-10-30T09:49:31.319Z,60.32
2022-10-30T09:52:26.709Z,60.48
2022-10-30T09:54:59.283Z,60.58
2022-10-30T09:57:36.335Z,60.41
2022-10-30T10:00:07.545Z,60.04
2022-10-30T10:02:36.831Z,59.64
2022-10-30T10:05:15.303Z,60.08
2022-10-30T10:07:44.550Z,60.44
2022-10-30T10:10:16.085Z,60.33
2022-10-30T10:12:45.456Z,60.66
2022-10-30T10:15:17.083Z,60.48
2022-10-30T10:17:48.830Z,60.73
2022-10-30T10:20:30.185Z,60.48
2022-10-30T10:22:58.429Z,60.29
2022-10-30T10:25:27.736Z,60.26
2022-10-30T10:28:03.591Z,60.07
2022-10-30T10:30:35.327Z,60.10
2022-10-30T10:33:24.504Z,60.33
2022-10-30T10:36:03.647Z,60.55
2022-10-30T10:38:38.763Z,60.24
2022-10-30T10:41:11.215Z,60.18
2022-10-30T10:43:44.228Z,60.40
2022-10-30T10:46:25.949Z,60.34
2022-10-30T10:49:00.048Z,60.64
2022-10-30T10:51:30.747Z,60.81
2022-10-30T10:53:59.876Z,60.83
2022-10-30T10:56:30.368Z,61.17
2022-10-30T10:58:58.847Z,61.03
2022-10-30T11:01:31.248Z,61.00
2022-10-30T11:04:01.178Z,60.81
2022-10-30T11:06:33.063Z,60.65
2022-10-30T11:09:04.898Z,60.84
2022-10-30T11:11:32.786Z,60.60
2022-10-30T11:14:00.756Z,60.87
2022-10-30T11:16:30.336Z,61.00
2022-10-30T11:19:00.559Z,60.82
2022-10-30T11:21:30.543Z,60.58
2022-10-30T11:23:58.391Z,60.84
2022-10-30T11:26:33.853Z,60.20
2022-10-30T11:29:06.842Z,60.60
2022-10-30T11:31:37.810Z,60.22
2022-10-30T11:34:32.974Z,60.54
2022-10-30T11:37:02.417Z,59.98
2022-10-30T11:39:31.005Z,59.78
2022-10-30T11:42:04.811Z,59.01
2022-10-30T11:44:35.235Z,58.76
2022-10-30T11:47:03.283Z,58.69
2022-10-30T11:49:41.748Z,58.27
2022-10-30T11:52:10.974Z,58.77
2022-10-30T11:54:40.320Z,60.54
2022-10-30T11:57:18.575Z,61.80
2022-10-30T11:59:46.676Z,63.17
2022-10-30T12:02:21.955Z,60.62
2022-10-30T12:04:50.956Z,57.47
2022-10-30T12:07:25.823Z,55.52
2022-10-30T12:09:53.663Z,55.14
2022-10-30T12:12:24.489Z,54.52
2022-10-30T12:14:52.844Z,54.45
2022-10-30T12:17:23.417Z,55.00
2022-10-30T12:19:52.512Z,57.92
2022-10-30T12:22:32.312Z,59.44
2022-10-30T12:25:00.303Z,58.41
2022-10-30T12:27:28.169Z,56.91
2022-10-30T12:30:10.004Z,55.25
2022-10-30T12:32:42.599Z,54.02
2022-10-30T12:35:17.593Z,52.67
2022-10-30T12:37:46.877Z,51.41
2022-10-30T12:40:16.269Z,50.42
2022-10-30T12:42:46.792Z,49.47
2022-10-30T12:45:16.398Z,48.80
2022-10-30T12:47:45.477Z,47.05
2022-10-30T12:50:18.924Z,46.40
2022-10-30T12:52:51.311Z,46.41
2022-10-30T12:55:21.485Z,45.54
2022-10-30T12:57:53.850Z,44.68
2022-10-30T13:00:21.945Z,44.56
2022-10-30T13:02:54.106Z,43.59
2022-10-30T13:05:32.568Z,43.92
2022-10-30T13:08:06.484Z,43.81
2022-10-30T13:10:37.036Z,44.94
2022-10-30T13:13:09.471Z,45.46
2022-10-30T13:15:38.505Z,44.80
2022-10-30T13:18:13.979Z,43.95
2022-10-30T13:20:48.120Z,43.62
2022-10-30T13:23:19.616Z,44.26
2022-10-30T13:25:53.828Z,45.22
2022-10-30T13:28:24.023Z,45.63
2022-10-30T13:30:55.820Z,45.78
2022-10-30T13:33:25.562Z,45.48
2022-10-30T13:36:01.551Z,45.77
2022-10-30T13:38:37.976Z,44.53
2022-10-30T13:41:09.643Z,43.72
2022-10-30T13:43:42.971Z,43.43
2022-10-30T13:46:28.790Z,42.04
2022-10-30T13:49:09.910Z,42.00
2022-10-30T13:51:41.300Z,40.31
2022-10-30T13:54:17.800Z,40.49
2022-10-30T13:56:46.253Z,41.80
2022-10-30T13:59:40.892Z,42.71
2022-10-30T14:02:14.603Z,43.37
2022-10-30T14:04:44.144Z,44.17
2022-10-30T14:07:22.171Z,44.40
2022-10-30T14:09:55.993Z,45.12
2022-10-30T14:12:46.067Z,45.71
2022-10-30T14:15:20.662Z,46.28
2022-10-30T14:18:24.494Z,46.82
2022-10-30T14:20:52.620Z,47.90
2022-10-30T14:23:22.341Z,48.42
2022-10-30T14:26:19.303Z,49.28
2022-10-30T14:28:47.269Z,49.54
2022-10-30T14:31:16.669Z,50.06
2022-10-30T14:33:46.974Z,50.56
2022-10-30T14:36:16.999Z,51.50
2022-10-30T14:38:56.243Z,52.00
2022-10-30T14:41:31.538Z,52.85
2022-10-30T14:44:19.979Z,53.32
2022-10-30T14:46:59.115Z,53.88
2022-10-30T14:49:48.050Z,53.94
2022-10-30T14:52:20.129Z,54.16
2022-10-30T14:54:52.028Z,54.25
2022-10-30T14:57:24.915Z,54.91
2022-10-30T15:00:25.902Z,55.16
2022-10-30T15:02:53.865Z,56.30
2022-10-30T15:05:46.280Z,57.07
2022-10-30T15:08:27.444Z,57.67
2022-10-30T15:11:05.491Z,58.33
2022-10-30T15:13:34.774Z,59.05
2022-10-30T15:16:04.014Z,59.12
2022-10-30T15:18:31.915Z,59.40
2022-10-30T15:21:02.811Z,59.35
2022-10-30T15:23:31.011Z,59.57
2022-10-30T15:26:04.917Z,59.63
2022-10-30T15:28:37.453Z,59.97
2022-10-30T15:31:06.151Z,59.80
2022-10-30T15:33:37.222Z,59.62
2022-10-30T15:36:05.347Z,59.75
2022-10-30T15:38:33.198Z,59.95
2022-10-30T15:41:02.420Z,59.90
2022-10-30T15:43:31.766Z,59.55
2022-10-30T15:46:01.037Z,59.87
2022-10-30T15:48:30.052Z,59.74
2022-10-30T15:51:01.598Z,59.78
2022-10-30T15:53:35.144Z,59.94
2022-10-30T15:56:03.061Z,59.92
2022-10-30T15:58:37.091Z,59.78
2022-10-30T16:01:06.700Z,59.65
2022-10-30T16:03:34.688Z,59.66
2022-10-30T16:06:07.520Z,59.76
2022-10-30T16:08:43.821Z,59.92
2022-10-30T16:11:11.733Z,59.77
2022-10-30T16:13:39.610Z,59.96
2022-10-30T16:16:13.264Z,59.99
2022-10-30T16:18:41.140Z,60.11
2022-10-30T16:21:10.637Z,60.21
2022-10-30T16:23:39.377Z,60.03
2022-10-30T16:26:07.346Z,60.00
2022-10-30T16:28:37.669Z,59.98
2022-10-30T16:31:10.103Z,60.15
2022-10-30T16:33:37.995Z,60.18
2022-10-30T16:36:06.480Z,60.47
2022-10-30T16:38:36.928Z,60.22
2022-10-30T16:41:08.258Z,60.62
2022-10-30T16:43:36.195Z,60.51
2022-10-30T16:46:34.110Z,60.70
2022-10-30T16:49:02.595Z,60.71
2022-10-30T16:51:30.538Z,60.71
2022-10-30T16:53:58.398Z,60.82
2022-10-30T16:56:27.128Z,60.63
2022-10-30T16:58:56.983Z,60.64
2022-10-30T17:01:27.337Z,60.81
2022-10-30T17:03:55.548Z,60.57
2022-10-30T17:06:27.608Z,60.76
2022-10-30T17:08:58.430Z,60.83
2022-10-30T17:11:35.427Z,60.56
2022-10-30T17:14:04.076Z,60.94
2022-10-30T17:16:33.600Z,61.21
2022-10-30T17:19:02.444Z,61.17
2022-10-30T17:21:31.042Z,60.91
2022-10-30T17:24:00.041Z,61.21
2022-10-30T17:26:28.117Z,61.08
2022-10-30T17:28:56.026Z,60.76
2022-10-30T17:31:29.999Z,60.96
2022-10-30T17:34:17.920Z,61.31
2022-10-30T17:36:46.207Z,61.14
2022-10-30T17:39:14.259Z,60.98
2022-10-30T17:41:42.153Z,61.11
2022-10-30T17:44:15.715Z,61.31
2022-10-30T17:46:44.252Z,61.01
2022-10-30T17:49:26.591Z,60.93
2022-10-30T17:51:54.663Z,61.11
2022-10-30T17:54:22.613Z,61.44
2022-10-30T17:56:50.602Z,61.54
2022-10-30T17:59:18.773Z,61.56
2022-10-30T18:01:48.902Z,61.61
2022-10-30T18:04:20.962Z,61.36
2022-10-30T18:06:50.600Z,61.23
2022-10-30T18:09:18.776Z,61.26
2022-10-30T18:11:46.713Z,61.33
2022-10-30T18:14:14.618Z,61.25
2022-10-30T18:16:42.521Z,61.62
2022-10-30T18:19:11.542Z,61.53
2022-10-30T18:21:39.495Z,61.71
2022-10-30T18:24:14.619Z,61.59
2022-10-30T18:26:42.473Z,61.42
2022-10-30T18:29:10.409Z,61.35
2022-10-30T18:31:38.521Z,61.47
2022-10-30T18:34:08.056Z,61.47
2022-10-30T18:36:35.970Z,61.48
2022-10-30T18:39:03.935Z,61.78
2022-10-30T18:41:34.485Z,61.63
2022-10-30T18:44:02.416Z,61.90
2022-10-30T18:46:30.696Z,61.88
2022-10-30T18:48:59.151Z,61.80
2022-10-30T18:51:27.819Z,61.56
2022-10-30T18:53:57.007Z,61.90
2022-10-30T18:56:26.706Z,61.57
2022-10-30T18:59:00.502Z,61.90
2022-10-30T19:01:29.569Z,61.53
2022-10-30T19:04:00.891Z,61.86
2022-10-30T19:06:29.085Z,61.73
2022-10-30T19:08:57.000Z,61.72
2022-10-30T19:11:25.831Z,61.85
2022-10-30T19:13:56.146Z,61.89
2022-10-30T19:16:25.738Z,61.84
2022-10-30T19:18:53.775Z,61.60
2022-10-30T19:21:22.386Z,61.54
2022-10-30T19:23:50.490Z,61.69
2022-10-30T19:26:18.490Z,61.96
2022-10-30T19:28:47.651Z,61.86
2022-10-30T19:31:17.632Z,61.93
2022-10-30T19:33:45.632Z,62.05
2022-10-30T19:36:26.882Z,62.04
2022-10-30T19:38:55.045Z,61.80
2022-10-30T19:41:24.747Z,61.80
2022-10-30T19:43:53.045Z,61.68
2022-10-30T19:46:22.407Z,61.90
2022-10-30T19:48:59.012Z,61.86
2022-10-30T19:51:27.371Z,61.63
2022-10-30T19:53:55.319Z,61.57
2022-10-30T19:56:23.327Z,61.88
2022-10-30T19:58:51.202Z,62.04
2022-10-30T20:01:19.417Z,62.08
2022-10-30T20:03:48.838Z,61.84
2022-10-30T20:06:17.092Z,61.94
2022-10-30T20:08:45.211Z,61.88
2022-10-30T20:11:13.581Z,61.72
2022-10-30T20:13:41.652Z,62.08
2022-10-30T20:16:09.655Z,61.85
2022-10-30T20:18:37.561Z,61.73
2022-10-30T20:21:08.931Z,62.05
2022-10-30T20:23:37.149Z,61.82
2022-10-30T20:26:06.608Z,61.78
2022-10-30T20:28:36.406Z,61.87
2022-10-30T20:31:04.464Z,61.70
2022-10-30T20:33:32.801Z,62.14
2022-10-30T20:36:00.873Z,61.80
2022-10-30T20:38:32.946Z,61.85
2022-10-30T20:41:01.622Z,62.03
2022-10-30T20:43:31.544Z,61.96
2022-10-30T20:45:59.499Z,61.86
2022-10-30T20:48:28.186Z,61.91
2022-10-30T20:50:56.369Z,61.70
2022-10-30T20:53:24.330Z,62.05
2022-10-30T20:55:53.901Z,62.02
2022-10-30T20:58:22.453Z,62.07
2022-10-30T21:00:50.858Z,61.99
2022-10-30T21:03:18.766Z,62.16
2022-10-30T21:05:47.414Z,62.00
2022-10-30T21:08:16.074Z,62.21
2022-10-30T21:10:44.262Z,62.17
2022-10-30T21:13:14.096Z,62.03
2022-10-30T21:15:43.518Z,62.18
2022-10-30T21:18:13.054Z,62.46
2022-10-30T21:20:41.656Z,62.17
2022-10-30T21:23:09.630Z,62.29
2022-10-30T21:25:38.043Z,62.20
2022-10-30T21:28:06.342Z,62.11
2022-10-30T21:30:36.222Z,62.07
2022-10-30T21:33:04.422Z,62.26
2022-10-30T21:35:32.658Z,62.43
2022-10-30T21:38:00.532Z,62.38
2022-10-30T21:40:29.243Z,62.50
2022-10-30T21:42:59.822Z,62.18
2022-10-30T21:45:31.067Z,62.30
2022-10-30T21:48:22.921Z,61.98
2022-10-30T21:50:51.521Z,62.31
2022-10-30T21:53:19.895Z,62.21
2022-10-30T21:55:47.833Z,62.17
2022-10-30T21:58:16.032Z,62.50
2022-10-30T22:00:43.964Z,62.47
2022-10-30T22:03:13.707Z,62.49
2022-10-30T22:05:42.057Z,62.08
2022-10-30T22:08:10.784Z,62.25
2022-10-30T22:10:42.318Z,61.97
2022-10-30T22:15:44.188Z,62.56
2022-10-30T22:18:14.086Z,62.44
2022-10-30T22:20:42.518Z,62.08
2022-10-30T22:23:15.697Z,62.52
2022-10-30T22:25:43.587Z,62.30
2022-10-30T22:28:12.169Z,62.37
2022-10-30T22:30:40.076Z,62.16
2022-10-30T22:33:07.964Z,62.69
2022-10-30T22:35:40.059Z,62.26
2022-10-30T22:38:08.317Z,62.55
2022-10-30T22:40:36.413Z,62.70
2022-10-30T22:43:07.168Z,62.85
2022-10-30T22:45:40.931Z,62.79
2022-10-30T22:48:09.099Z,62.99
2022-10-30T22:50:39.349Z,62.83
2022-10-30T22:53:08.945Z,62.96
2022-10-30T22:55:37.124Z,63.18
2022-10-30T22:58:05.326Z,62.71
2022-10-30T23:00:33.783Z,63.14
2022-10-30T23:03:02.208Z,62.95
2022-10-30T23:05:30.819Z,62.93
2022-10-30T23:07:59.011Z,62.91
2022-10-30T23:10:29.126Z,62.92
2022-10-30T23:12:57.708Z,62.78
2022-10-30T23:15:26.370Z,63.20
2022-10-30T23:17:54.679Z,62.69
2022-10-30T23:20:23.015Z,62.96
2022-10-30T23:22:51.303Z,63.23
2022-10-30T23:25:19.633Z,63.06
2022-10-30T23:27:49.294Z,62.79
2022-10-30T23:30:17.628Z,62.69
2022-10-30T23:32:48.844Z,63.10
2022-10-30T23:35:17.191Z,62.90
2022-10-30T23:37:45.427Z,63.23
2022-10-30T23:40:14.024Z,63.10
2022-10-30T23:42:42.176Z,62.93
2022-10-30T23:45:11.964Z,62.87
2022-10-30T23:47:42.703Z,62.87
2022-10-30T23:50:12.206Z,63.14
2022-10-30T23:52:40.467Z,63.00
2022-10-30T23:55:09.779Z,62.66
2022-10-30T23:57:38.064Z,62.71
